• Join FlightAware (Why Join?)
  • Login
  • US Flag 
06:53PM EST


 

Airport Tracker/Info


-or-


 

Live Flight TrackerFlight Track Log ✈ SWA2429 ✈ 30-Mar-2012 ✈ KSNA - KDEN

Flight Track Log - Related Links

Times and Time Zones

All times are in EDT time to prevent confusion due to time zone crossing. See the SWA2429 flight status page for this flight to view local times or setup timezone preferences in your user account.

Time Position Orientation Groundspeed Altitude Reporting Facility
EDT Latitude Longitude Course Direction KTS MPH feet Rate Location/Type
10:39PM 33.6479 -117.8729 209° Southwest  Level FlightAware Approximate
10:40PM 33.5382 -117.8715 346° North  Level FlightAware Approximate
10:41PM 33.4713 -117.7758 326° Northwest  Level FlightAware Approximate
10:42PM 33.4877 -117.6483 302° West  Level FlightAware Approximate
10:43PM 33.5433 -117.5291 283° West  Level FlightAware Approximate
10:44PM 33.5833 -117.4016 275° West  Level FlightAware Approximate
10:45PM 33.5833 -117.2642 274° West  Level FlightAware Approximate
10:46PM 33.7231 -117.7500 228° Southwest  Level FlightAware Approximate
10:46PM 33.6156 -117.8947 181° South 165 190 2,800  Level Los Angeles Center
10:47PM 33.5656 -117.8961 132° Southeast 165 190 3,800 1,320 Climbing Los Angeles Center
10:48PM 33.5328 -117.8531 76° East 171 197 5,500 2,220 Climbing Los Angeles Center
10:49PM 33.5506 -117.7661 82° East 169 194 8,300 2,880 Climbing Los Angeles Center
10:50PM 33.5625 -117.6642 86° East 237 273 11,300 3,060 Climbing Los Angeles Center
10:51PM 33.5700 -117.5447 87° East 311 358 14,500 3,120 Climbing Los Angeles Center
10:52PM 33.5758 -117.4153 86° East 350 403 17,600 2,880 Climbing Los Angeles Center
10:53PM 33.5833 -117.2681 87° East 379 436 20,300 2,640 Climbing Los Angeles Center
10:54PM 33.5889 -117.1286 86° East 405 466 22,900 2,100 Climbing Los Angeles Center
10:55PM 33.5964 -116.9817 82° East 424 488 24,500 1,800 Climbing Los Angeles Center
10:56PM 33.6139 -116.8369 78° East 429 494 26,600 1,860 Climbing Los Angeles Center
10:57PM 33.6397 -116.6900 82° East 434 499 28,300 1,800 Climbing Los Angeles Center
10:58PM 33.6569 -116.5406 80° East 447 514 30,300 2,220 Climbing Los Angeles Center
10:59PM 33.6783 -116.3908 83° East 447 514 32,800 2,340 Climbing Los Angeles Center
11:00PM 33.6931 -116.2486 83° East 441 507 35,000 1,980 Climbing Los Angeles Center
11:01PM 33.7078 -116.1061 75° East 436 502 36,800 1,500 Climbing Los Angeles Center
11:02PM 33.7369 -115.9714 54° Northeast 426 490 38,000 1,020 Climbing Los Angeles Center
11:03PM 33.8036 -115.8589 53° Northeast 408 470 38,900 480 Climbing Los Angeles Center
11:04PM 33.8742 -115.7458 55° Northeast 408 470 39,000  Climbing Los Angeles Center
11:05PM 33.9406 -115.6306 55° Northeast 414 476 39,000  Level Los Angeles Center
11:06PM 34.0089 -115.5147 55° Northeast 420 483 39,000  Level Los Angeles Center
11:07PM 34.0772 -115.3989 55° Northeast 420 483 39,000  Level Los Angeles Center
11:08PM 34.1453 -115.2828 54° Northeast 420 483 39,000  Level Los Angeles Center
11:09PM 34.2114 -115.1717 55° Northeast 420 483 39,000  Level Los Angeles Center
11:10PM 34.2792 -115.0553 55° Northeast 420 483 39,000  Level Los Angeles Center
11:11PM 34.3469 -114.9386 56° Northeast 420 483 39,000  Level Los Angeles Center
11:12PM 34.4128 -114.8219 55° Northeast 420 483 39,000  Level Los Angeles Center
11:13PM 34.4781 -114.7075 54° Northeast 420 483 39,000  Level Los Angeles Center
11:14PM 34.5478 -114.5928 55° Northeast 420 483 39,000  Level Los Angeles Center
11:15PM 34.6131 -114.4781 54° Northeast 414 476 39,000  Level Los Angeles Center
11:16PM 34.6761 -114.3708 56° Northeast 420 483 39,000  Level Los Angeles Center
11:17PM 34.7414 -114.2531 55° Northeast 425 489 39,000  Level Los Angeles Center
11:18PM 34.8083 -114.1353 56° Northeast 425 489 39,000  Level Los Angeles Center
11:19PM 34.8731 -114.0197 55° Northeast 425 489 39,000  Level Los Angeles Center
11:20PM 34.9378 -113.9067 55° Northeast 419 482 39,000  Level Los Angeles Center
11:21PM 35.0047 -113.7908 55° Northeast 419 482 39,000  Level Los Angeles Center
11:22PM 35.0733 -113.6694 56° Northeast 419 482 39,000  Level Los Angeles Center
11:23PM 35.1375 -113.5508 55° Northeast 419 482 39,000  Level Los Angeles Center
11:24PM 35.2039 -113.4344 55° Northeast 419 482 39,000  Level Los Angeles Center
11:25PM 35.2722 -113.3150 56° Northeast 424 488 39,000  Level Los Angeles Center
11:26PM 35.3403 -113.1906 56° Northeast 431 496 39,000  Level Los Angeles Center
11:27PM 35.4061 -113.0708 57° Northeast 426 490 39,000  Level Los Angeles Center
11:28PM 35.4758 -112.9383 55° Northeast 426 490 39,000  Level Los Angeles Center
11:29PM 35.5356 -112.8339 56° Northeast 426 490 39,000  Level Los Angeles Center
11:30PM 35.6011 -112.7136 55° Northeast 426 490 39,000  Level Los Angeles Center
11:31PM 35.6667 -112.5983 57° Northeast 421 484 39,000  Level Los Angeles Center
11:34PM 35.8206 -112.3031 56° Northeast 418 481 39,000  Level Denver Center
11:35PM 35.8875 -112.1803 55° Northeast 418 481 39,000  Level Denver Center
11:36PM 35.9536 -112.0622 57° Northeast 418 481 39,000  Level Denver Center
11:37PM 36.0181 -111.9414 57° Northeast 418 481 39,000  Level Denver Center
11:38PM 36.0822 -111.8178 57° Northeast 418 481 39,000  Level Denver Center
11:39PM 36.1464 -111.6942 56° Northeast 423 487 39,000  Level Denver Center
11:40PM 36.2169 -111.5628 58° Northeast 423 487 39,000  Level Denver Center
11:41PM 36.2786 -111.4408 55° Northeast 423 487 39,000  Level Denver Center
11:42PM 36.3464 -111.3192 57° Northeast 423 487 39,000  Level Denver Center
11:43PM 36.4097 -111.1997 58° Northeast 423 487 39,000  Level Denver Center
11:44PM 36.4733 -111.0747 56° Northeast 423 487 39,000  Level Denver Center
11:45PM 36.5386 -110.9522 58° Northeast 424 488 39,000  Level Denver Center
11:46PM 36.5953 -110.8394 57° Northeast 424 488 39,000  Level Denver Center
11:47PM 36.6603 -110.7139 57° Northeast 424 488 39,000  Level Denver Center
11:48PM 36.7256 -110.5883 58° Northeast 424 488 39,000  Level Denver Center
11:49PM 36.7883 -110.4647 58° Northeast 424 488 39,000  Level Denver Center
11:50PM 36.8508 -110.3411 57° Northeast 424 488 39,000  Level Denver Center
11:51PM 36.9156 -110.2147 56° Northeast 424 488 39,000  Level Denver Center
11:52PM 36.9886 -110.0808 57° Northeast 424 488 39,000  Level Denver Center
11:53PM 37.0531 -109.9567 57° Northeast 424 488 39,000  Level Denver Center
11:54PM 37.1106 -109.8450 58° Northeast 424 488 39,000  Level Denver Center
11:55PM 37.1728 -109.7175 58° Northeast 424 488 39,000  Level Denver Center
11:56PM 37.2389 -109.5825 57° Northeast 424 488 39,000  Level Denver Center
11:57PM 37.3028 -109.4572 54° Northeast 424 488 39,000  Level Denver Center
11:58PM 37.3639 -109.3503 56° Northeast 424 488 39,000  Level Denver Center
11:59PM 37.4317 -109.2247 55° Northeast 424 488 39,000  Level Denver Center
12:00AM 37.5056 -109.0917 55° Northeast 424 488 39,000  Level Denver Center
12:01AM 37.5731 -108.9711 56° Northeast 424 488 39,000  Level Denver Center
12:02AM 37.6339 -108.8578 56° Northeast 424 488 39,000  Level Denver Center
12:03AM 37.6989 -108.7367 55° Northeast 429 494 39,000  Level Denver Center
12:04AM 37.7744 -108.6000 55° Northeast 424 488 39,000  Level Denver Center
12:05AM 37.8411 -108.4808 57° Northeast 424 488 39,000  Level Denver Center
12:06AM 37.9058 -108.3567 56° Northeast 424 488 39,000  Level Denver Center
12:07AM 37.9661 -108.2450 56° Northeast 424 488 39,000  Level Denver Center
12:08AM 38.0389 -108.1097 56° Northeast 419 482 39,000  Level Denver Center
12:09AM 38.1011 -107.9925 56° Northeast 414 476 39,000  Level Denver Center
12:10AM 38.1650 -107.8722 56° Northeast 414 476 39,000  Level Denver Center
12:11AM 38.2228 -107.7625 56° Northeast 414 476 39,000  Level Denver Center
12:12AM 38.2950 -107.6261 56° Northeast 414 476 39,000  Level Denver Center
12:13AM 38.3589 -107.5056 56° Northeast 414 476 39,000  Level Denver Center
12:14AM 38.4244 -107.3794 55° Northeast 419 482 39,000  Level Denver Center
12:15AM 38.4836 -107.2714 57° Northeast 419 482 39,000  Level Denver Center
12:16AM 38.5533 -107.1342 57° Northeast 419 482 39,000  Level Denver Center
12:17AM 38.6186 -107.0044 55° Northeast 419 482 39,000  Level Denver Center
12:18AM 38.6858 -106.8800 56° Northeast 419 482 39,000  Level Denver Center
12:19AM 38.7447 -106.7686 57° Northeast 426 490 39,000  Level Denver Center
12:20AM 38.8136 -106.6303 56° Northeast 416 479 39,000  Level Denver Center
12:21AM 38.8806 -106.5025 58° Northeast 416 479 39,000 -900 Level Denver Center
12:22AM 38.9369 -106.3878 57° Northeast 423 487 37,300 -2,100 Descending Denver Center
12:23AM 39.0014 -106.2622 58° Northeast 418 481 34,800 -2,820 Descending Denver Center
12:24AM 39.0678 -106.1256 56° Northeast 418 481 31,700 -2,940 Descending Denver Center
12:25AM 39.1319 -106.0019 57° Northeast 418 481 28,900 -2,520 Descending Denver Center
12:26AM 39.1878 -105.8892 57° Northeast 418 481 26,700 -2,460 Descending Denver Center
12:27AM 39.2475 -105.7681 56° Northeast 411 473 24,000 -2,700 Descending Denver Center
12:28AM 39.3092 -105.6494 57° Northeast 401 461 21,400 -2,340 Descending Denver Center
12:29AM 39.3667 -105.5333 54° Northeast 394 453 19,500 -1,380 Descending Denver Center
12:30AM 39.4242 -105.4303 53° Northeast 374 430 18,700 -960 Descending Denver Center
12:31AM 39.4878 -105.3189 52° Northeast 354 407 17,600 -1,080 Descending Denver Center
12:32AM 39.5472 -105.2211 53° Northeast 348 400 16,600 -1,020 Descending Denver Center
12:33AM 39.6044 -105.1231 53° Northeast 348 400 15,600 -1,020 Descending Denver Center
12:34AM 39.6617 -105.0247 52° Northeast 348 400 14,600 -960 Descending Denver Center
12:36AM 39.7433 -104.8908 23° Northeast 326 375 13,100 -1,140 Descending Denver Center
12:36AM 39.8167 -104.8500 360° North 301 346 11,900 -1,140 Descending Denver TRACON
12:37AM 39.9000 -104.8500 11° North 275 316 11,100 -600 Descending Denver TRACON
12:39AM 39.9667 -104.8333 27° Northeast 246 283 10,700 -600 Descending Denver TRACON
12:40AM 40.0167 -104.8000 90° East 251 289 9,900 -1,020 Descending Denver TRACON
12:41AM 40.0167 -104.7167 159° South 232 267 8,700 -1,320 Descending Denver TRACON
12:41AM 39.9833 -104.7000 180° South 186 214 7,500 -1,320 Descending Denver TRACON
12:42AM 39.9333 -104.7000 180° South 158 182 6,200 -1,080 Descending Denver TRACON
12:43AM 39.9000 -104.7000 180° South 147 169 5,600 -780 Descending Denver TRACON